sensor_id;sensor_type;location;lat;lon;timestamp;temperature;humidity
48328;DHT22;34136;51.022;7.082;2023-05-10T00:01:09;14.40;1.00
48328;DHT22;34136;51.022;7.082;2023-05-10T00:04:02;14.40;1.00
48328;DHT22;34136;51.022;7.082;2023-05-10T00:06:55;14.40;1.00
48328;DHT22;34136;51.022;7.082;2023-05-10T00:09:46;14.50;1.00
48328;DHT22;34136;51.022;7.082;2023-05-10T00:12:33;14.50;1.00
48328;DHT22;34136;51.022;7.082;2023-05-10T00:15:20;14.50;1.00
48328;DHT22;34136;51.022;7.082;2023-05-10T00:18:07;14.50;1.00
48328;DHT22;34136;51.022;7.082;2023-05-10T00:20:55;14.50;1.00
48328;DHT22;34136;51.022;7.082;2023-05-10T00:23:59;14.50;1.00
48328;DHT22;34136;51.022;7.082;2023-05-10T00:26:45;14.60;1.00
48328;DHT22;34136;51.022;7.082;2023-05-10T00:29:32;14.60;1.00
48328;DHT22;34136;51.022;7.082;2023-05-10T00:32:18;14.60;1.00
48328;DHT22;34136;51.022;7.082;2023-05-10T00:35:05;14.60;1.00
48328;DHT22;34136;51.022;7.082;2023-05-10T00:37:52;14.50;1.00
48328;DHT22;34136;51.022;7.082;2023-05-10T00:40:40;14.50;1.00
48328;DHT22;34136;51.022;7.082;2023-05-10T00:43:37;14.60;1.00
48328;DHT22;34136;51.022;7.082;2023-05-10T00:46:25;14.70;1.00
48328;DHT22;34136;51.022;7.082;2023-05-10T00:49:12;14.70;1.00
48328;DHT22;34136;51.022;7.082;2023-05-10T00:51:59;14.60;1.00
48328;DHT22;34136;51.022;7.082;2023-05-10T00:54:48;14.60;1.00
48328;DHT22;34136;51.022;7.082;2023-05-10T00:57:35;14.60;1.00
48328;DHT22;34136;51.022;7.082;2023-05-10T01:00:22;14.60;1.00
48328;DHT22;34136;51.022;7.082;2023-05-10T01:03:10;14.60;1.00
48328;DHT22;34136;51.022;7.082;2023-05-10T01:06:01;14.70;1.00
48328;DHT22;34136;51.022;7.082;2023-05-10T01:08:53;14.70;1.00
48328;DHT22;34136;51.022;7.082;2023-05-10T01:11:39;14.60;1.00
48328;DHT22;34136;51.022;7.082;2023-05-10T01:14:27;14.60;1.00
48328;DHT22;34136;51.022;7.082;2023-05-10T01:17:14;14.60;1.00
48328;DHT22;34136;51.022;7.082;2023-05-10T01:20:01;14.60;1.00
48328;DHT22;34136;51.022;7.082;2023-05-10T01:32:46;14.50;1.00
48328;DHT22;34136;51.022;7.082;2023-05-10T01:35:55;14.50;1.00
48328;DHT22;34136;51.022;7.082;2023-05-10T01:39:01;14.50;1.00
48328;DHT22;34136;51.022;7.082;2023-05-10T01:42:13;14.50;1.00
48328;DHT22;34136;51.022;7.082;2023-05-10T01:45:30;14.50;1.00
48328;DHT22;34136;51.022;7.082;2023-05-10T01:48:19;14.50;1.00
48328;DHT22;34136;51.022;7.082;2023-05-10T01:51:06;14.50;1.00
48328;DHT22;34136;51.022;7.082;2023-05-10T01:54:00;14.50;1.00
48328;DHT22;34136;51.022;7.082;2023-05-10T01:56:55;14.50;1.00
48328;DHT22;34136;51.022;7.082;2023-05-10T01:59:43;14.50;1.00
48328;DHT22;34136;51.022;7.082;2023-05-10T02:02:37;14.50;1.00
48328;DHT22;34136;51.022;7.082;2023-05-10T02:05:25;14.50;1.00
48328;DHT22;34136;51.022;7.082;2023-05-10T02:08:13;14.40;1.00
48328;DHT22;34136;51.022;7.082;2023-05-10T02:11:01;14.30;1.00
48328;DHT22;34136;51.022;7.082;2023-05-10T02:13:49;14.20;1.00
48328;DHT22;34136;51.022;7.082;2023-05-10T02:16:36;14.20;1.00
48328;DHT22;34136;51.022;7.082;2023-05-10T02:19:25;14.20;1.00
48328;DHT22;34136;51.022;7.082;2023-05-10T02:22:12;14.20;1.00
48328;DHT22;34136;51.022;7.082;2023-05-10T02:25:01;14.20;1.00
48328;DHT22;34136;51.022;7.082;2023-05-10T02:27:49;14.20;1.00
48328;DHT22;34136;51.022;7.082;2023-05-10T02:30:36;14.10;1.00
48328;DHT22;34136;51.022;7.082;2023-05-10T02:33:24;14.10;1.00
48328;DHT22;34136;51.022;7.082;2023-05-10T02:36:12;14.20;1.00
48328;DHT22;34136;51.022;7.082;2023-05-10T02:39:01;14.10;1.00
48328;DHT22;34136;51.022;7.082;2023-05-10T02:41:49;14.10;1.00
48328;DHT22;34136;51.022;7.082;2023-05-10T02:44:37;14.10;1.00
48328;DHT22;34136;51.022;7.082;2023-05-10T02:47:23;14.10;1.00
48328;DHT22;34136;51.022;7.082;2023-05-10T02:50:10;14.20;1.00
48328;DHT22;34136;51.022;7.082;2023-05-10T02:53:00;14.20;1.00
48328;DHT22;34136;51.022;7.082;2023-05-10T02:55:51;14.20;1.00
48328;DHT22;34136;51.022;7.082;2023-05-10T02:58:38;14.20;1.00
48328;DHT22;34136;51.022;7.082;2023-05-10T03:01:25;14.20;1.00
48328;DHT22;34136;51.022;7.082;2023-05-10T03:04:11;14.10;1.00
48328;DHT22;34136;51.022;7.082;2023-05-10T03:06:59;14.10;1.00
48328;DHT22;34136;51.022;7.082;2023-05-10T03:09:45;14.20;1.00
48328;DHT22;34136;51.022;7.082;2023-05-10T03:18:29;14.10;1.00
48328;DHT22;34136;51.022;7.082;2023-05-10T03:21:18;14.10;1.00
48328;DHT22;34136;51.022;7.082;2023-05-10T03:24:07;14.10;1.00
48328;DHT22;34136;51.022;7.082;2023-05-10T03:26:59;14.10;1.00
48328;DHT22;34136;51.022;7.082;2023-05-10T03:29:48;14.10;1.00
48328;DHT22;34136;51.022;7.082;2023-05-10T03:32:37;14.10;1.00
48328;DHT22;34136;51.022;7.082;2023-05-10T03:35:24;14.10;1.00
48328;DHT22;34136;51.022;7.082;2023-05-10T03:38:12;14.10;1.00
48328;DHT22;34136;51.022;7.082;2023-05-10T03:41:00;14.10;1.00
48328;DHT22;34136;51.022;7.082;2023-05-10T03:43:46;14.20;1.00
48328;DHT22;34136;51.022;7.082;2023-05-10T03:46:33;14.20;1.00
48328;DHT22;34136;51.022;7.082;2023-05-10T03:49:20;14.20;1.00
48328;DHT22;34136;51.022;7.082;2023-05-10T03:52:07;14.20;1.00
48328;DHT22;34136;51.022;7.082;2023-05-10T03:54:55;14.20;1.00
48328;DHT22;34136;51.022;7.082;2023-05-10T03:57:43;14.30;1.00
48328;DHT22;34136;51.022;7.082;2023-05-10T04:00:30;14.30;1.00
48328;DHT22;34136;51.022;7.082;2023-05-10T04:03:16;14.30;1.00
48328;DHT22;34136;51.022;7.082;2023-05-10T04:06:03;14.40;1.00
48328;DHT22;34136;51.022;7.082;2023-05-10T04:08:50;14.40;1.00
48328;DHT22;34136;51.022;7.082;2023-05-10T04:11:37;14.40;1.00
48328;DHT22;34136;51.022;7.082;2023-05-10T04:14:24;14.50;1.00
48328;DHT22;34136;51.022;7.082;2023-05-10T04:17:11;14.50;1.00
48328;DHT22;34136;51.022;7.082;2023-05-10T04:19:57;14.50;1.00
48328;DHT22;34136;51.022;7.082;2023-05-10T04:22:44;14.40;1.00
48328;DHT22;34136;51.022;7.082;2023-05-10T04:25:33;14.50;1.00
48328;DHT22;34136;51.022;7.082;2023-05-10T04:28:19;14.50;1.00
48328;DHT22;34136;51.022;7.082;2023-05-10T04:31:07;14.50;1.00
48328;DHT22;34136;51.022;7.082;2023-05-10T04:33:54;14.40;1.00
48328;DHT22;34136;51.022;7.082;2023-05-10T04:36:40;14.50;1.00
48328;DHT22;34136;51.022;7.082;2023-05-10T04:39:27;14.40;1.00
48328;DHT22;34136;51.022;7.082;2023-05-10T04:42:13;14.50;1.00
48328;DHT22;34136;51.022;7.082;2023-05-10T04:44:59;14.50;1.00
48328;DHT22;34136;51.022;7.082;2023-05-10T04:47:46;14.50;1.00
48328;DHT22;34136;51.022;7.082;2023-05-10T04:50:32;14.50;1.00
48328;DHT22;34136;51.022;7.082;2023-05-10T04:53:18;14.60;1.00
48328;DHT22;34136;51.022;7.082;2023-05-10T04:56:05;14.60;1.00
48328;DHT22;34136;51.022;7.082;2023-05-10T04:58:51;14.60;1.00
48328;DHT22;34136;51.022;7.082;2023-05-10T05:01:38;14.60;1.00
48328;DHT22;34136;51.022;7.082;2023-05-10T05:04:24;14.50;1.00
48328;DHT22;34136;51.022;7.082;2023-05-10T05:07:11;14.50;1.00
48328;DHT22;34136;51.022;7.082;2023-05-10T05:09:57;14.50;1.00
48328;DHT22;34136;51.022;7.082;2023-05-10T05:12:43;14.50;1.00
48328;DHT22;34136;51.022;7.082;2023-05-10T05:15:30;14.40;1.00
48328;DHT22;34136;51.022;7.082;2023-05-10T05:18:16;14.40;1.00
48328;DHT22;34136;51.022;7.082;2023-05-10T05:21:02;14.40;1.00
48328;DHT22;34136;51.022;7.082;2023-05-10T05:23:49;14.20;1.00
48328;DHT22;34136;51.022;7.082;2023-05-10T05:26:35;14.20;1.00
48328;DHT22;34136;51.022;7.082;2023-05-10T05:29:22;14.10;1.00
48328;DHT22;34136;51.022;7.082;2023-05-10T05:32:08;14.10;1.00
48328;DHT22;34136;51.022;7.082;2023-05-10T05:34:54;14.10;1.00
48328;DHT22;34136;51.022;7.082;2023-05-10T05:37:41;14.10;1.00
48328;DHT22;34136;51.022;7.082;2023-05-10T05:40:27;14.20;1.00
48328;DHT22;34136;51.022;7.082;2023-05-10T05:43:13;14.20;1.00
48328;DHT22;34136;51.022;7.082;2023-05-10T05:45:59;14.20;1.00
48328;DHT22;34136;51.022;7.082;2023-05-10T05:48:45;14.30;1.00
48328;DHT22;34136;51.022;7.082;2023-05-10T05:51:31;14.30;1.00
48328;DHT22;34136;51.022;7.082;2023-05-10T05:54:18;14.40;1.00
48328;DHT22;34136;51.022;7.082;2023-05-10T05:57:04;14.40;1.00
48328;DHT22;34136;51.022;7.082;2023-05-10T05:59:50;14.40;1.00
48328;DHT22;34136;51.022;7.082;2023-05-10T06:02:36;14.40;1.00
48328;DHT22;34136;51.022;7.082;2023-05-10T06:05:22;14.40;1.00
48328;DHT22;34136;51.022;7.082;2023-05-10T06:08:09;14.40;1.00
48328;DHT22;34136;51.022;7.082;2023-05-10T06:10:55;14.40;1.00
48328;DHT22;34136;51.022;7.082;2023-05-10T06:13:41;14.40;1.00
48328;DHT22;34136;51.022;7.082;2023-05-10T06:16:28;14.40;1.00
48328;DHT22;34136;51.022;7.082;2023-05-10T06:19:14;14.50;1.00
48328;DHT22;34136;51.022;7.082;2023-05-10T06:22:00;14.40;1.00
48328;DHT22;34136;51.022;7.082;2023-05-10T06:24:46;14.40;1.00
48328;DHT22;34136;51.022;7.082;2023-05-10T06:27:33;14.30;1.00
48328;DHT22;34136;51.022;7.082;2023-05-10T06:30:19;14.30;1.00
48328;DHT22;34136;51.022;7.082;2023-05-10T06:33:05;14.30;1.00
48328;DHT22;34136;51.022;7.082;2023-05-10T06:35:51;14.20;1.00
48328;DHT22;34136;51.022;7.082;2023-05-10T06:38:38;14.20;1.00
48328;DHT22;34136;51.022;7.082;2023-05-10T06:41:24;14.40;1.00
48328;DHT22;34136;51.022;7.082;2023-05-10T06:44:10;14.30;1.00
48328;DHT22;34136;51.022;7.082;2023-05-10T06:46:57;14.20;1.00
48328;DHT22;34136;51.022;7.082;2023-05-10T06:49:43;14.30;1.00
48328;DHT22;34136;51.022;7.082;2023-05-10T06:52:29;14.20;1.00
48328;DHT22;34136;51.022;7.082;2023-05-10T06:55:16;14.20;1.00
48328;DHT22;34136;51.022;7.082;2023-05-10T06:58:02;14.20;1.00
48328;DHT22;34136;51.022;7.082;2023-05-10T07:00:48;14.30;1.00
48328;DHT22;34136;51.022;7.082;2023-05-10T07:03:35;14.40;1.00
48328;DHT22;34136;51.022;7.082;2023-05-10T07:06:21;14.30;1.00
48328;DHT22;34136;51.022;7.082;2023-05-10T07:09:07;14.30;1.00
48328;DHT22;34136;51.022;7.082;2023-05-10T07:11:53;14.30;1.00
48328;DHT22;34136;51.022;7.082;2023-05-10T07:14:40;14.30;1.00
48328;DHT22;34136;51.022;7.082;2023-05-10T07:17:26;14.30;1.00
48328;DHT22;34136;51.022;7.082;2023-05-10T07:20:12;14.20;1.00
48328;DHT22;34136;51.022;7.082;2023-05-10T07:22:59;14.20;1.00
48328;DHT22;34136;51.022;7.082;2023-05-10T07:25:46;14.30;1.00
48328;DHT22;34136;51.022;7.082;2023-05-10T07:28:33;14.30;1.00
48328;DHT22;34136;51.022;7.082;2023-05-10T07:31:19;14.30;1.00
48328;DHT22;34136;51.022;7.082;2023-05-10T07:34:06;14.40;1.00
48328;DHT22;34136;51.022;7.082;2023-05-10T07:36:54;14.40;1.00
48328;DHT22;34136;51.022;7.082;2023-05-10T07:39:40;14.50;1.00
48328;DHT22;34136;51.022;7.082;2023-05-10T07:42:27;14.50;1.00
48328;DHT22;34136;51.022;7.082;2023-05-10T07:45:18;14.40;1.00
48328;DHT22;34136;51.022;7.082;2023-05-10T07:48:21;14.40;1.00
48328;DHT22;34136;51.022;7.082;2023-05-10T07:51:22;14.40;1.00
48328;DHT22;34136;51.022;7.082;2023-05-10T07:54:16;14.40;1.00
48328;DHT22;34136;51.022;7.082;2023-05-10T07:57:04;14.40;1.00
48328;DHT22;34136;51.022;7.082;2023-05-10T08:00:19;14.50;1.00
48328;DHT22;34136;51.022;7.082;2023-05-10T08:03:20;14.50;1.00
48328;DHT22;34136;51.022;7.082;2023-05-10T08:06:11;14.50;1.00
48328;DHT22;34136;51.022;7.082;2023-05-10T08:09:09;14.60;1.00
48328;DHT22;34136;51.022;7.082;2023-05-10T08:12:00;14.70;1.00
48328;DHT22;34136;51.022;7.082;2023-05-10T08:14:50;14.80;1.00
48328;DHT22;34136;51.022;7.082;2023-05-10T08:17:51;14.80;1.00
48328;DHT22;34136;51.022;7.082;2023-05-10T08:21:07;14.80;1.00
48328;DHT22;34136;51.022;7.082;2023-05-10T08:24:27;14.90;1.00
48328;DHT22;34136;51.022;7.082;2023-05-10T08:27:20;14.90;1.00
48328;DHT22;34136;51.022;7.082;2023-05-10T08:30:27;14.90;1.00
48328;DHT22;34136;51.022;7.082;2023-05-10T08:33:21;15.10;1.00
48328;DHT22;34136;51.022;7.082;2023-05-10T08:36:11;15.10;1.00
48328;DHT22;34136;51.022;7.082;2023-05-10T08:39:08;15.20;1.00
48328;DHT22;34136;51.022;7.082;2023-05-10T08:42:00;15.20;1.00
48328;DHT22;34136;51.022;7.082;2023-05-10T08:44:50;15.20;1.00
48328;DHT22;34136;51.022;7.082;2023-05-10T08:47:39;15.20;1.00
48328;DHT22;34136;51.022;7.082;2023-05-10T08:50:45;15.30;1.00
48328;DHT22;34136;51.022;7.082;2023-05-10T08:53:35;15.20;1.00
48328;DHT22;34136;51.022;7.082;2023-05-10T08:56:37;15.20;1.00
48328;DHT22;34136;51.022;7.082;2023-05-10T08:59:26;15.10;1.00
48328;DHT22;34136;51.022;7.082;2023-05-10T09:02:16;15.10;1.00
48328;DHT22;34136;51.022;7.082;2023-05-10T09:05:08;15.20;1.00
48328;DHT22;34136;51.022;7.082;2023-05-10T09:07:56;15.00;1.00
48328;DHT22;34136;51.022;7.082;2023-05-10T09:10:48;14.90;1.00
48328;DHT22;34136;51.022;7.082;2023-05-10T09:13:42;14.90;1.00
48328;DHT22;34136;51.022;7.082;2023-05-10T09:16:44;14.80;1.00
48328;DHT22;34136;51.022;7.082;2023-05-10T09:19:49;14.60;1.00
48328;DHT22;34136;51.022;7.082;2023-05-10T09:22:40;14.60;1.00
48328;DHT22;34136;51.022;7.082;2023-05-10T09:25:35;14.80;1.00
48328;DHT22;34136;51.022;7.082;2023-05-10T09:28:56;14.90;1.00
48328;DHT22;34136;51.022;7.082;2023-05-10T09:31:54;15.10;1.00
48328;DHT22;34136;51.022;7.082;2023-05-10T09:35:14;15.30;1.00
48328;DHT22;34136;51.022;7.082;2023-05-10T09:38:16;15.30;1.00
48328;DHT22;34136;51.022;7.082;2023-05-10T09:41:25;15.50;1.00
48328;DHT22;34136;51.022;7.082;2023-05-10T09:44:22;15.50;1.00
48328;DHT22;34136;51.022;7.082;2023-05-10T09:47:25;15.50;1.00
48328;DHT22;34136;51.022;7.082;2023-05-10T09:50:18;15.60;1.00
48328;DHT22;34136;51.022;7.082;2023-05-10T09:53:16;15.60;1.00
48328;DHT22;34136;51.022;7.082;2023-05-10T09:56:03;15.60;1.00
48328;DHT22;34136;51.022;7.082;2023-05-10T09:59:02;15.60;1.00
48328;DHT22;34136;51.022;7.082;2023-05-10T10:01:50;15.60;1.00
48328;DHT22;34136;51.022;7.082;2023-05-10T10:04:41;15.70;1.00
48328;DHT22;34136;51.022;7.082;2023-05-10T10:07:27;15.50;1.00
48328;DHT22;34136;51.022;7.082;2023-05-10T10:10:14;15.40;1.00
48328;DHT22;34136;51.022;7.082;2023-05-10T10:13:01;15.40;1.00
48328;DHT22;34136;51.022;7.082;2023-05-10T10:15:48;15.40;1.00
48328;DHT22;34136;51.022;7.082;2023-05-10T10:18:36;15.30;1.00
48328;DHT22;34136;51.022;7.082;2023-05-10T10:21:23;15.30;1.00
48328;DHT22;34136;51.022;7.082;2023-05-10T10:24:09;15.30;1.00
48328;DHT22;34136;51.022;7.082;2023-05-10T10:27:07;15.20;1.00
48328;DHT22;34136;51.022;7.082;2023-05-10T10:30:27;15.30;1.00
48328;DHT22;34136;51.022;7.082;2023-05-10T10:33:45;15.30;1.00
48328;DHT22;34136;51.022;7.082;2023-05-10T10:36:45;15.20;1.00
48328;DHT22;34136;51.022;7.082;2023-05-10T10:39:32;15.10;1.00
48328;DHT22;34136;51.022;7.082;2023-05-10T10:42:44;15.20;1.00
48328;DHT22;34136;51.022;7.082;2023-05-10T10:45:30;15.40;1.00
48328;DHT22;34136;51.022;7.082;2023-05-10T10:48:21;15.50;1.00
48328;DHT22;34136;51.022;7.082;2023-05-10T10:51:07;15.60;1.00
48328;DHT22;34136;51.022;7.082;2023-05-10T10:53:54;15.60;1.00
48328;DHT22;34136;51.022;7.082;2023-05-10T10:56:40;15.70;1.00
48328;DHT22;34136;51.022;7.082;2023-05-10T10:59:27;15.80;1.00
48328;DHT22;34136;51.022;7.082;2023-05-10T11:06:03;15.80;1.00
48328;DHT22;34136;51.022;7.082;2023-05-10T11:08:51;15.90;1.00
48328;DHT22;34136;51.022;7.082;2023-05-10T11:11:54;15.90;1.00
48328;DHT22;34136;51.022;7.082;2023-05-10T11:14:40;15.80;1.00
48328;DHT22;34136;51.022;7.082;2023-05-10T11:17:29;15.80;1.00
48328;DHT22;34136;51.022;7.082;2023-05-10T11:20:17;15.90;1.00
48328;DHT22;34136;51.022;7.082;2023-05-10T11:23:13;15.90;1.00
48328;DHT22;34136;51.022;7.082;2023-05-10T11:26:00;16.20;1.00
48328;DHT22;34136;51.022;7.082;2023-05-10T11:28:48;16.10;1.00
48328;DHT22;34136;51.022;7.082;2023-05-10T11:31:35;16.30;1.00
48328;DHT22;34136;51.022;7.082;2023-05-10T11:34:30;16.60;1.00
48328;DHT22;34136;51.022;7.082;2023-05-10T11:37:18;16.60;1.00
48328;DHT22;34136;51.022;7.082;2023-05-10T11:40:05;16.70;1.00
48328;DHT22;34136;51.022;7.082;2023-05-10T11:42:51;16.60;1.00
48328;DHT22;34136;51.022;7.082;2023-05-10T11:45:40;16.60;1.00
48328;DHT22;34136;51.022;7.082;2023-05-10T11:48:27;16.40;1.00
48328;DHT22;34136;51.022;7.082;2023-05-10T11:51:15;16.40;1.00
48328;DHT22;34136;51.022;7.082;2023-05-10T11:54:06;16.20;1.00
48328;DHT22;34136;51.022;7.082;2023-05-10T11:56:52;16.20;1.00
48328;DHT22;34136;51.022;7.082;2023-05-10T11:59:39;16.10;1.00
48328;DHT22;34136;51.022;7.082;2023-05-10T12:02:25;16.30;1.00
48328;DHT22;34136;51.022;7.082;2023-05-10T12:05:13;16.40;1.00
48328;DHT22;34136;51.022;7.082;2023-05-10T12:08:15;16.60;1.00
48328;DHT22;34136;51.022;7.082;2023-05-10T12:11:09;16.70;1.00
48328;DHT22;34136;51.022;7.082;2023-05-10T12:13:56;17.10;1.00
48328;DHT22;34136;51.022;7.082;2023-05-10T12:16:43;17.00;1.00
48328;DHT22;34136;51.022;7.082;2023-05-10T12:19:37;17.20;1.00
48328;DHT22;34136;51.022;7.082;2023-05-10T12:22:24;17.20;1.00
48328;DHT22;34136;51.022;7.082;2023-05-10T12:25:10;17.30;1.00
48328;DHT22;34136;51.022;7.082;2023-05-10T12:27:58;17.30;1.00
48328;DHT22;34136;51.022;7.082;2023-05-10T12:30:44;17.40;1.00
48328;DHT22;34136;51.022;7.082;2023-05-10T12:36:23;17.60;1.00
48328;DHT22;34136;51.022;7.082;2023-05-10T12:39:10;17.80;1.00
48328;DHT22;34136;51.022;7.082;2023-05-10T12:41:56;17.80;1.00
48328;DHT22;34136;51.022;7.082;2023-05-10T12:44:43;17.70;1.00
48328;DHT22;34136;51.022;7.082;2023-05-10T12:47:29;17.70;1.00
48328;DHT22;34136;51.022;7.082;2023-05-10T12:50:16;17.70;1.00
48328;DHT22;34136;51.022;7.082;2023-05-10T12:53:02;17.80;1.00
48328;DHT22;34136;51.022;7.082;2023-05-10T12:55:49;17.70;1.00
48328;DHT22;34136;51.022;7.082;2023-05-10T12:58:35;17.70;1.00
48328;DHT22;34136;51.022;7.082;2023-05-10T13:01:21;17.80;1.00
48328;DHT22;34136;51.022;7.082;2023-05-10T13:04:08;17.90;1.00
48328;DHT22;34136;51.022;7.082;2023-05-10T13:06:55;18.00;1.00
48328;DHT22;34136;51.022;7.082;2023-05-10T13:09:41;18.00;1.00
48328;DHT22;34136;51.022;7.082;2023-05-10T13:12:27;18.00;1.00
48328;DHT22;34136;51.022;7.082;2023-05-10T13:15:14;18.20;1.00
48328;DHT22;34136;51.022;7.082;2023-05-10T13:18:00;18.30;1.00
48328;DHT22;34136;51.022;7.082;2023-05-10T13:20:46;18.50;1.00
48328;DHT22;34136;51.022;7.082;2023-05-10T13:23:34;18.80;1.00
48328;DHT22;34136;51.022;7.082;2023-05-10T13:26:20;19.10;1.00
48328;DHT22;34136;51.022;7.082;2023-05-10T13:29:07;18.90;1.00
48328;DHT22;34136;51.022;7.082;2023-05-10T13:31:53;18.80;1.00
48328;DHT22;34136;51.022;7.082;2023-05-10T13:34:40;18.70;1.00
48328;DHT22;34136;51.022;7.082;2023-05-10T13:37:26;18.70;1.00
48328;DHT22;34136;51.022;7.082;2023-05-10T13:40:13;18.60;1.00
48328;DHT22;34136;51.022;7.082;2023-05-10T13:42:59;18.80;1.00
48328;DHT22;34136;51.022;7.082;2023-05-10T13:45:45;18.90;1.00
48328;DHT22;34136;51.022;7.082;2023-05-10T13:48:31;19.00;1.00
48328;DHT22;34136;51.022;7.082;2023-05-10T13:51:18;19.00;1.00
48328;DHT22;34136;51.022;7.082;2023-05-10T13:54:04;18.90;1.00
48328;DHT22;34136;51.022;7.082;2023-05-10T13:56:51;19.10;1.00
48328;DHT22;34136;51.022;7.082;2023-05-10T13:59:37;19.00;1.00
48328;DHT22;34136;51.022;7.082;2023-05-10T14:02:24;19.00;1.00
48328;DHT22;34136;51.022;7.082;2023-05-10T14:05:10;18.80;1.00
48328;DHT22;34136;51.022;7.082;2023-05-10T14:07:57;18.80;1.00
48328;DHT22;34136;51.022;7.082;2023-05-10T14:10:44;18.80;1.00
48328;DHT22;34136;51.022;7.082;2023-05-10T14:13:30;18.80;1.00
48328;DHT22;34136;51.022;7.082;2023-05-10T14:16:17;18.80;1.00
48328;DHT22;34136;51.022;7.082;2023-05-10T14:19:03;18.70;1.00
48328;DHT22;34136;51.022;7.082;2023-05-10T14:21:49;18.70;1.00
48328;DHT22;34136;51.022;7.082;2023-05-10T14:24:35;18.80;1.00
48328;DHT22;34136;51.022;7.082;2023-05-10T14:27:21;19.00;1.00
48328;DHT22;34136;51.022;7.082;2023-05-10T14:30:08;19.20;1.00
48328;DHT22;34136;51.022;7.082;2023-05-10T14:32:55;19.60;1.00
48328;DHT22;34136;51.022;7.082;2023-05-10T14:35:41;19.60;1.00
48328;DHT22;34136;51.022;7.082;2023-05-10T14:38:27;19.70;1.00
48328;DHT22;34136;51.022;7.082;2023-05-10T14:41:14;19.60;1.00
48328;DHT22;34136;51.022;7.082;2023-05-10T14:44:01;19.30;1.00
48328;DHT22;34136;51.022;7.082;2023-05-10T14:46:47;19.10;1.00
48328;DHT22;34136;51.022;7.082;2023-05-10T14:49:33;19.10;1.00
48328;DHT22;34136;51.022;7.082;2023-05-10T14:52:19;18.90;1.00
48328;DHT22;34136;51.022;7.082;2023-05-10T14:55:06;18.80;1.00
48328;DHT22;34136;51.022;7.082;2023-05-10T14:57:52;18.80;1.00
48328;DHT22;34136;51.022;7.082;2023-05-10T15:00:39;18.80;1.00
48328;DHT22;34136;51.022;7.082;2023-05-10T15:03:26;18.80;1.00
48328;DHT22;34136;51.022;7.082;2023-05-10T15:06:14;18.80;1.00
48328;DHT22;34136;51.022;7.082;2023-05-10T15:09:02;18.80;1.00
48328;DHT22;34136;51.022;7.082;2023-05-10T15:11:48;18.70;1.00
48328;DHT22;34136;51.022;7.082;2023-05-10T15:14:34;18.50;1.00
48328;DHT22;34136;51.022;7.082;2023-05-10T15:17:22;18.40;1.00
48328;DHT22;34136;51.022;7.082;2023-05-10T15:20:08;18.40;1.00
48328;DHT22;34136;51.022;7.082;2023-05-10T15:22:55;18.30;1.00
48328;DHT22;34136;51.022;7.082;2023-05-10T15:25:41;18.10;1.00
48328;DHT22;34136;51.022;7.082;2023-05-10T15:28:28;17.90;1.00
48328;DHT22;34136;51.022;7.082;2023-05-10T15:31:14;18.00;1.00
48328;DHT22;34136;51.022;7.082;2023-05-10T15:34:00;18.20;1.00
48328;DHT22;34136;51.022;7.082;2023-05-10T15:36:47;18.30;1.00
48328;DHT22;34136;51.022;7.082;2023-05-10T15:39:33;18.40;1.00
48328;DHT22;34136;51.022;7.082;2023-05-10T15:42:20;18.50;1.00
48328;DHT22;34136;51.022;7.082;2023-05-10T15:45:06;18.40;1.00
48328;DHT22;34136;51.022;7.082;2023-05-10T15:47:53;18.50;1.00
48328;DHT22;34136;51.022;7.082;2023-05-10T15:50:40;18.60;1.00
48328;DHT22;34136;51.022;7.082;2023-05-10T15:53:26;18.60;1.00
48328;DHT22;34136;51.022;7.082;2023-05-10T15:56:13;18.60;1.00
48328;DHT22;34136;51.022;7.082;2023-05-10T15:59:00;18.50;1.00
48328;DHT22;34136;51.022;7.082;2023-05-10T16:01:46;18.30;1.00
48328;DHT22;34136;51.022;7.082;2023-05-10T16:04:32;18.30;1.00
48328;DHT22;34136;51.022;7.082;2023-05-10T16:07:18;18.10;1.00
48328;DHT22;34136;51.022;7.082;2023-05-10T16:10:05;18.30;1.00
48328;DHT22;34136;51.022;7.082;2023-05-10T16:12:53;18.30;1.00
48328;DHT22;34136;51.022;7.082;2023-05-10T16:15:40;18.20;1.00
48328;DHT22;34136;51.022;7.082;2023-05-10T16:18:26;18.00;1.00
48328;DHT22;34136;51.022;7.082;2023-05-10T16:21:13;17.80;1.00
48328;DHT22;34136;51.022;7.082;2023-05-10T16:24:02;17.80;1.00
48328;DHT22;34136;51.022;7.082;2023-05-10T16:26:48;17.60;1.00
48328;DHT22;34136;51.022;7.082;2023-05-10T16:29:35;17.70;1.00
48328;DHT22;34136;51.022;7.082;2023-05-10T16:32:21;17.70;1.00
48328;DHT22;34136;51.022;7.082;2023-05-10T16:35:08;17.70;1.00
48328;DHT22;34136;51.022;7.082;2023-05-10T16:37:55;17.40;1.00
48328;DHT22;34136;51.022;7.082;2023-05-10T16:40:42;17.50;1.00
48328;DHT22;34136;51.022;7.082;2023-05-10T16:43:29;17.40;1.00
48328;DHT22;34136;51.022;7.082;2023-05-10T16:46:15;17.50;1.00
48328;DHT22;34136;51.022;7.082;2023-05-10T16:49:01;17.20;1.00
48328;DHT22;34136;51.022;7.082;2023-05-10T16:51:48;17.30;1.00
48328;DHT22;34136;51.022;7.082;2023-05-10T16:54:34;17.40;1.00
48328;DHT22;34136;51.022;7.082;2023-05-10T16:57:21;17.40;1.00
48328;DHT22;34136;51.022;7.082;2023-05-10T17:00:08;17.30;1.00
48328;DHT22;34136;51.022;7.082;2023-05-10T17:02:54;17.20;1.00
48328;DHT22;34136;51.022;7.082;2023-05-10T17:05:41;17.10;1.00
48328;DHT22;34136;51.022;7.082;2023-05-10T17:08:27;16.80;1.00
48328;DHT22;34136;51.022;7.082;2023-05-10T17:11:13;16.70;1.00
48328;DHT22;34136;51.022;7.082;2023-05-10T17:14:00;16.60;1.00
48328;DHT22;34136;51.022;7.082;2023-05-10T17:16:46;16.50;1.00
48328;DHT22;34136;51.022;7.082;2023-05-10T17:19:32;16.30;1.00
48328;DHT22;34136;51.022;7.082;2023-05-10T17:22:19;16.30;1.00
48328;DHT22;34136;51.022;7.082;2023-05-10T17:25:06;16.20;1.00
48328;DHT22;34136;51.022;7.082;2023-05-10T17:27:52;16.20;1.00
48328;DHT22;34136;51.022;7.082;2023-05-10T17:30:39;16.10;1.00
48328;DHT22;34136;51.022;7.082;2023-05-10T17:33:25;16.10;1.00
48328;DHT22;34136;51.022;7.082;2023-05-10T17:36:12;16.10;1.00
48328;DHT22;34136;51.022;7.082;2023-05-10T17:38:58;16.10;1.00
48328;DHT22;34136;51.022;7.082;2023-05-10T17:41:44;16.30;1.00
48328;DHT22;34136;51.022;7.082;2023-05-10T17:44:31;16.30;1.00
48328;DHT22;34136;51.022;7.082;2023-05-10T17:47:18;16.30;1.00
48328;DHT22;34136;51.022;7.082;2023-05-10T17:50:04;16.40;1.00
48328;DHT22;34136;51.022;7.082;2023-05-10T17:52:51;16.30;1.00
48328;DHT22;34136;51.022;7.082;2023-05-10T17:55:41;16.20;1.00
48328;DHT22;34136;51.022;7.082;2023-05-10T17:58:27;16.20;1.00
48328;DHT22;34136;51.022;7.082;2023-05-10T18:01:13;16.10;1.00
48328;DHT22;34136;51.022;7.082;2023-05-10T18:03:59;16.10;1.00
48328;DHT22;34136;51.022;7.082;2023-05-10T18:06:45;16.00;1.00
48328;DHT22;34136;51.022;7.082;2023-05-10T18:09:31;15.90;1.00
48328;DHT22;34136;51.022;7.082;2023-05-10T18:12:18;15.80;1.00
48328;DHT22;34136;51.022;7.082;2023-05-10T18:15:04;15.80;1.00
48328;DHT22;34136;51.022;7.082;2023-05-10T18:17:50;15.60;1.00
48328;DHT22;34136;51.022;7.082;2023-05-10T18:20:37;15.60;1.00
48328;DHT22;34136;51.022;7.082;2023-05-10T18:23:23;15.40;1.00
48328;DHT22;34136;51.022;7.082;2023-05-10T18:26:09;15.40;1.00